sensor_id;sensor_type;location;lat;lon;timestamp;P1;durP1;ratioP1;P2;durP2;ratioP2
4634;SDS011;2330;48.158;11.816;2024-03-25T00:00:38;5.22;;;1.58;;
4634;SDS011;2330;48.158;11.816;2024-03-25T00:03:04;2.17;;;2.07;;
4634;SDS011;2330;48.158;11.816;2024-03-25T00:05:30;3.33;;;1.97;;
4634;SDS011;2330;48.158;11.816;2024-03-25T00:07:57;2.80;;;2.20;;
4634;SDS011;2330;48.158;11.816;2024-03-25T00:10:23;2.78;;;2.40;;
4634;SDS011;2330;48.158;11.816;2024-03-25T00:12:49;2.65;;;2.45;;
4634;SDS011;2330;48.158;11.816;2024-03-25T00:15:20;2.17;;;2.00;;
4634;SDS011;2330;48.158;11.816;2024-03-25T00:17:49;1.40;;;1.30;;
4634;SDS011;2330;48.158;11.816;2024-03-25T00:20:15;1.85;;;1.30;;
4634;SDS011;2330;48.158;11.816;2024-03-25T00:22:41;1.60;;;1.13;;
4634;SDS011;2330;48.158;11.816;2024-03-25T00:25:07;2.63;;;1.63;;
4634;SDS011;2330;48.158;11.816;2024-03-25T00:27:33;1.50;;;1.40;;
4634;SDS011;2330;48.158;11.816;2024-03-25T00:29:59;4.10;;;1.42;;
4634;SDS011;2330;48.158;11.816;2024-03-25T00:32:25;1.50;;;1.23;;
4634;SDS011;2330;48.158;11.816;2024-03-25T00:34:51;2.20;;;2.00;;
4634;SDS011;2330;48.158;11.816;2024-03-25T00:37:17;1.40;;;1.30;;
4634;SDS011;2330;48.158;11.816;2024-03-25T00:39:44;1.67;;;1.33;;
4634;SDS011;2330;48.158;11.816;2024-03-25T00:42:10;1.60;;;1.50;;
4634;SDS011;2330;48.158;11.816;2024-03-25T00:44:36;1.80;;;1.63;;
4634;SDS011;2330;48.158;11.816;2024-03-25T00:47:02;2.20;;;1.50;;
4634;SDS011;2330;48.158;11.816;2024-03-25T00:49:28;2.17;;;1.77;;
4634;SDS011;2330;48.158;11.816;2024-03-25T00:51:54;2.53;;;1.47;;
4634;SDS011;2330;48.158;11.816;2024-03-25T00:54:19;2.03;;;1.60;;
4634;SDS011;2330;48.158;11.816;2024-03-25T00:56:45;1.80;;;1.50;;
4634;SDS011;2330;48.158;11.816;2024-03-25T00:59:11;1.40;;;1.30;;
4634;SDS011;2330;48.158;11.816;2024-03-25T01:01:37;3.08;;;1.63;;
4634;SDS011;2330;48.158;11.816;2024-03-25T01:04:03;1.80;;;1.67;;
4634;SDS011;2330;48.158;11.816;2024-03-25T01:06:29;1.70;;;1.60;;
4634;SDS011;2330;48.158;11.816;2024-03-25T01:08:55;1.40;;;1.30;;
4634;SDS011;2330;48.158;11.816;2024-03-25T01:11:21;1.40;;;1.30;;
4634;SDS011;2330;48.158;11.816;2024-03-25T01:13:47;3.03;;;1.30;;
4634;SDS011;2330;48.158;11.816;2024-03-25T01:16:13;1.50;;;1.40;;
4634;SDS011;2330;48.158;11.816;2024-03-25T01:18:40;1.40;;;1.33;;
4634;SDS011;2330;48.158;11.816;2024-03-25T01:21:05;3.03;;;1.50;;
4634;SDS011;2330;48.158;11.816;2024-03-25T01:23:31;1.70;;;1.60;;
4634;SDS011;2330;48.158;11.816;2024-03-25T01:25:57;1.87;;;1.47;;
4634;SDS011;2330;48.158;11.816;2024-03-25T01:28:23;1.43;;;1.33;;
4634;SDS011;2330;48.158;11.816;2024-03-25T01:30:49;1.57;;;1.47;;
4634;SDS011;2330;48.158;11.816;2024-03-25T01:33:15;2.00;;;1.37;;
4634;SDS011;2330;48.158;11.816;2024-03-25T01:35:41;1.93;;;1.40;;
4634;SDS011;2330;48.158;11.816;2024-03-25T01:38:07;2.65;;;1.50;;
4634;SDS011;2330;48.158;11.816;2024-03-25T01:40:33;3.40;;;1.53;;
4634;SDS011;2330;48.158;11.816;2024-03-25T01:42:59;2.97;;;1.83;;
4634;SDS011;2330;48.158;11.816;2024-03-25T01:45:30;1.88;;;1.77;;
4634;SDS011;2330;48.158;11.816;2024-03-25T01:47:59;1.77;;;1.58;;
4634;SDS011;2330;48.158;11.816;2024-03-25T01:50:30;3.65;;;1.70;;
4634;SDS011;2330;48.158;11.816;2024-03-25T01:53:00;3.10;;;1.67;;
4634;SDS011;2330;48.158;11.816;2024-03-25T01:55:27;2.90;;;1.63;;
4634;SDS011;2330;48.158;11.816;2024-03-25T01:57:55;1.65;;;1.55;;
4634;SDS011;2330;48.158;11.816;2024-03-25T02:00:22;1.92;;;1.50;;
4634;SDS011;2330;48.158;11.816;2024-03-25T02:02:51;2.25;;;1.67;;
4634;SDS011;2330;48.158;11.816;2024-03-25T02:05:18;1.70;;;1.30;;
4634;SDS011;2330;48.158;11.816;2024-03-25T02:07:44;1.48;;;1.38;;
4634;SDS011;2330;48.158;11.816;2024-03-25T02:10:11;1.40;;;1.30;;
4634;SDS011;2330;48.158;11.816;2024-03-25T02:12:40;1.63;;;1.40;;
4634;SDS011;2330;48.158;11.816;2024-03-25T02:15:07;1.30;;;1.20;;
4634;SDS011;2330;48.158;11.816;2024-03-25T02:17:34;1.60;;;1.50;;
4634;SDS011;2330;48.158;11.816;2024-03-25T02:20:00;2.05;;;1.70;;
4634;SDS011;2330;48.158;11.816;2024-03-25T02:22:28;1.70;;;1.58;;
4634;SDS011;2330;48.158;11.816;2024-03-25T02:24:55;1.60;;;1.50;;
4634;SDS011;2330;48.158;11.816;2024-03-25T02:27:23;2.55;;;1.40;;
4634;SDS011;2330;48.158;11.816;2024-03-25T02:29:54;2.10;;;1.77;;
4634;SDS011;2330;48.158;11.816;2024-03-25T02:32:20;2.22;;;1.00;;
4634;SDS011;2330;48.158;11.816;2024-03-25T02:34:47;1.60;;;1.50;;
4634;SDS011;2330;48.158;11.816;2024-03-25T02:37:17;1.60;;;1.50;;
4634;SDS011;2330;48.158;11.816;2024-03-25T02:39:43;1.52;;;1.40;;
4634;SDS011;2330;48.158;11.816;2024-03-25T02:42:10;3.33;;;1.35;;
4634;SDS011;2330;48.158;11.816;2024-03-25T02:44:35;1.50;;;1.40;;
4634;SDS011;2330;48.158;11.816;2024-03-25T02:47:02;1.30;;;1.20;;
4634;SDS011;2330;48.158;11.816;2024-03-25T02:49:29;1.50;;;1.40;;
4634;SDS011;2330;48.158;11.816;2024-03-25T02:51:55;3.42;;;1.45;;
4634;SDS011;2330;48.158;11.816;2024-03-25T02:54:21;2.30;;;1.50;;
4634;SDS011;2330;48.158;11.816;2024-03-25T02:56:47;2.17;;;1.70;;
4634;SDS011;2330;48.158;11.816;2024-03-25T02:59:13;1.70;;;1.60;;
4634;SDS011;2330;48.158;11.816;2024-03-25T03:01:39;3.03;;;1.70;;
4634;SDS011;2330;48.158;11.816;2024-03-25T03:04:04;1.73;;;1.57;;
4634;SDS011;2330;48.158;11.816;2024-03-25T03:06:31;1.65;;;1.55;;
4634;SDS011;2330;48.158;11.816;2024-03-25T03:08:57;1.40;;;1.30;;
4634;SDS011;2330;48.158;11.816;2024-03-25T03:11:23;1.70;;;1.60;;
4634;SDS011;2330;48.158;11.816;2024-03-25T03:13:48;1.77;;;1.60;;
4634;SDS011;2330;48.158;11.816;2024-03-25T03:16:14;1.63;;;1.50;;
4634;SDS011;2330;48.158;11.816;2024-03-25T03:18:40;2.00;;;1.70;;
4634;SDS011;2330;48.158;11.816;2024-03-25T03:21:07;2.95;;;1.48;;
4634;SDS011;2330;48.158;11.816;2024-03-25T03:23:32;1.97;;;1.83;;
4634;SDS011;2330;48.158;11.816;2024-03-25T03:25:58;3.40;;;2.30;;
4634;SDS011;2330;48.158;11.816;2024-03-25T03:28:25;2.78;;;1.80;;
4634;SDS011;2330;48.158;11.816;2024-03-25T03:30:51;1.90;;;1.70;;
4634;SDS011;2330;48.158;11.816;2024-03-25T03:33:16;3.10;;;2.07;;
4634;SDS011;2330;48.158;11.816;2024-03-25T03:35:43;4.35;;;1.95;;
4634;SDS011;2330;48.158;11.816;2024-03-25T03:38:09;2.27;;;1.60;;
4634;SDS011;2330;48.158;11.816;2024-03-25T03:40:34;3.43;;;1.70;;
4634;SDS011;2330;48.158;11.816;2024-03-25T03:43:00;2.10;;;1.90;;
4634;SDS011;2330;48.158;11.816;2024-03-25T03:45:26;4.40;;;2.30;;
4634;SDS011;2330;48.158;11.816;2024-03-25T03:47:58;4.78;;;1.92;;
4634;SDS011;2330;48.158;11.816;2024-03-25T03:50:24;4.57;;;2.13;;
4634;SDS011;2330;48.158;11.816;2024-03-25T03:52:50;2.00;;;1.90;;
4634;SDS011;2330;48.158;11.816;2024-03-25T03:55:16;2.30;;;1.87;;
4634;SDS011;2330;48.158;11.816;2024-03-25T03:57:42;2.60;;;1.80;;
4634;SDS011;2330;48.158;11.816;2024-03-25T04:00:08;2.50;;;1.80;;
4634;SDS011;2330;48.158;11.816;2024-03-25T04:02:36;2.55;;;1.80;;
4634;SDS011;2330;48.158;11.816;2024-03-25T04:05:03;3.10;;;1.83;;
4634;SDS011;2330;48.158;11.816;2024-03-25T04:07:29;2.10;;;2.00;;
4634;SDS011;2330;48.158;11.816;2024-03-25T04:09:57;2.75;;;2.00;;
4634;SDS011;2330;48.158;11.816;2024-03-25T04:12:24;3.72;;;1.83;;
4634;SDS011;2330;48.158;11.816;2024-03-25T04:14:50;2.42;;;1.60;;
4634;SDS011;2330;48.158;11.816;2024-03-25T04:17:20;2.67;;;1.90;;
4634;SDS011;2330;48.158;11.816;2024-03-25T04:19:47;2.13;;;1.90;;
4634;SDS011;2330;48.158;11.816;2024-03-25T04:22:14;2.03;;;1.83;;
4634;SDS011;2330;48.158;11.816;2024-03-25T04:24:40;2.50;;;1.70;;
4634;SDS011;2330;48.158;11.816;2024-03-25T04:27:06;5.90;;;1.83;;
4634;SDS011;2330;48.158;11.816;2024-03-25T04:29:32;1.70;;;1.60;;
4634;SDS011;2330;48.158;11.816;2024-03-25T04:31:57;2.10;;;2.00;;
4634;SDS011;2330;48.158;11.816;2024-03-25T04:34:23;2.13;;;1.77;;
4634;SDS011;2330;48.158;11.816;2024-03-25T04:36:49;2.37;;;2.00;;
4634;SDS011;2330;48.158;11.816;2024-03-25T04:39:15;2.40;;;1.85;;
4634;SDS011;2330;48.158;11.816;2024-03-25T04:41:41;1.88;;;1.77;;
4634;SDS011;2330;48.158;11.816;2024-03-25T04:44:07;2.20;;;1.50;;
4634;SDS011;2330;48.158;11.816;2024-03-25T04:46:33;2.53;;;1.90;;
4634;SDS011;2330;48.158;11.816;2024-03-25T04:48:59;2.40;;;1.70;;
4634;SDS011;2330;48.158;11.816;2024-03-25T04:51:24;3.33;;;1.73;;
4634;SDS011;2330;48.158;11.816;2024-03-25T04:53:50;1.80;;;1.57;;
4634;SDS011;2330;48.158;11.816;2024-03-25T04:56:16;1.70;;;1.60;;
4634;SDS011;2330;48.158;11.816;2024-03-25T04:58:42;2.30;;;2.07;;
4634;SDS011;2330;48.158;11.816;2024-03-25T05:01:08;1.70;;;1.60;;
4634;SDS011;2330;48.158;11.816;2024-03-25T05:03:34;2.10;;;1.90;;
4634;SDS011;2330;48.158;11.816;2024-03-25T05:06:00;3.20;;;2.13;;
4634;SDS011;2330;48.158;11.816;2024-03-25T05:08:25;1.90;;;1.80;;
4634;SDS011;2330;48.158;11.816;2024-03-25T05:10:51;2.23;;;2.03;;
4634;SDS011;2330;48.158;11.816;2024-03-25T05:13:17;3.50;;;2.57;;
4634;SDS011;2330;48.158;11.816;2024-03-25T05:15:52;2.13;;;1.90;;
4634;SDS011;2330;48.158;11.816;2024-03-25T05:18:18;1.80;;;1.70;;
4634;SDS011;2330;48.158;11.816;2024-03-25T05:20:44;1.98;;;1.85;;
4634;SDS011;2330;48.158;11.816;2024-03-25T05:23:10;2.00;;;1.80;;
4634;SDS011;2330;48.158;11.816;2024-03-25T05:25:36;2.70;;;2.00;;
4634;SDS011;2330;48.158;11.816;2024-03-25T05:28:04;1.98;;;1.60;;
4634;SDS011;2330;48.158;11.816;2024-03-25T05:30:30;2.08;;;1.83;;
4634;SDS011;2330;48.158;11.816;2024-03-25T05:32:56;1.93;;;1.83;;
4634;SDS011;2330;48.158;11.816;2024-03-25T05:35:22;3.47;;;2.10;;
4634;SDS011;2330;48.158;11.816;2024-03-25T05:37:48;2.50;;;1.92;;
4634;SDS011;2330;48.158;11.816;2024-03-25T05:40:14;6.07;;;2.05;;
4634;SDS011;2330;48.158;11.816;2024-03-25T05:42:40;1.97;;;1.70;;
4634;SDS011;2330;48.158;11.816;2024-03-25T05:45:09;1.92;;;1.65;;
4634;SDS011;2330;48.158;11.816;2024-03-25T05:47:35;1.95;;;1.75;;
4634;SDS011;2330;48.158;11.816;2024-03-25T05:50:01;4.30;;;1.87;;
4634;SDS011;2330;48.158;11.816;2024-03-25T05:52:31;2.15;;;1.90;;
4634;SDS011;2330;48.158;11.816;2024-03-25T05:54:57;3.50;;;1.80;;
4634;SDS011;2330;48.158;11.816;2024-03-25T05:57:23;2.57;;;2.27;;
4634;SDS011;2330;48.158;11.816;2024-03-25T05:59:49;2.20;;;1.90;;
4634;SDS011;2330;48.158;11.816;2024-03-25T06:02:14;2.80;;;2.00;;
4634;SDS011;2330;48.158;11.816;2024-03-25T06:04:41;2.10;;;1.88;;
4634;SDS011;2330;48.158;11.816;2024-03-25T06:07:06;3.60;;;1.80;;
4634;SDS011;2330;48.158;11.816;2024-03-25T06:09:32;3.40;;;2.00;;
4634;SDS011;2330;48.158;11.816;2024-03-25T06:11:58;1.70;;;1.60;;
4634;SDS011;2330;48.158;11.816;2024-03-25T06:14:24;2.47;;;2.27;;
4634;SDS011;2330;48.158;11.816;2024-03-25T06:16:50;2.20;;;1.97;;
4634;SDS011;2330;48.158;11.816;2024-03-25T06:19:18;3.47;;;1.92;;
4634;SDS011;2330;48.158;11.816;2024-03-25T06:21:44;2.20;;;1.70;;
4634;SDS011;2330;48.158;11.816;2024-03-25T06:24:10;3.10;;;2.30;;
4634;SDS011;2330;48.158;11.816;2024-03-25T06:26:36;4.73;;;1.83;;
4634;SDS011;2330;48.158;11.816;2024-03-25T06:29:02;2.03;;;1.80;;
4634;SDS011;2330;48.158;11.816;2024-03-25T06:31:28;4.63;;;2.37;;
4634;SDS011;2330;48.158;11.816;2024-03-25T06:34:13;3.42;;;1.70;;
4634;SDS011;2330;48.158;11.816;2024-03-25T06:36:50;2.33;;;2.10;;
4634;SDS011;2330;48.158;11.816;2024-03-25T06:39:16;2.25;;;1.98;;
4634;SDS011;2330;48.158;11.816;2024-03-25T06:41:42;1.97;;;1.87;;
4634;SDS011;2330;48.158;11.816;2024-03-25T06:44:08;1.90;;;1.60;;
4634;SDS011;2330;48.158;11.816;2024-03-25T06:46:33;2.00;;;1.80;;
4634;SDS011;2330;48.158;11.816;2024-03-25T06:48:59;2.87;;;2.00;;
4634;SDS011;2330;48.158;11.816;2024-03-25T06:51:25;2.13;;;1.90;;
4634;SDS011;2330;48.158;11.816;2024-03-25T06:53:51;2.50;;;2.20;;
4634;SDS011;2330;48.158;11.816;2024-03-25T06:56:17;2.60;;;2.37;;
4634;SDS011;2330;48.158;11.816;2024-03-25T06:58:43;2.88;;;2.10;;
4634;SDS011;2330;48.158;11.816;2024-03-25T07:01:09;3.80;;;2.43;;
4634;SDS011;2330;48.158;11.816;2024-03-25T07:03:38;1.83;;;1.73;;
4634;SDS011;2330;48.158;11.816;2024-03-25T07:06:04;4.77;;;2.47;;
4634;SDS011;2330;48.158;11.816;2024-03-25T07:08:30;2.37;;;2.13;;
4634;SDS011;2330;48.158;11.816;2024-03-25T07:10:57;1.53;;;1.40;;
4634;SDS011;2330;48.158;11.816;2024-03-25T07:13:23;2.23;;;2.03;;
4634;SDS011;2330;48.158;11.816;2024-03-25T07:15:49;2.13;;;1.93;;
4634;SDS011;2330;48.158;11.816;2024-03-25T07:18:15;2.30;;;1.87;;
4634;SDS011;2330;48.158;11.816;2024-03-25T07:20:43;3.03;;;2.20;;
4634;SDS011;2330;48.158;11.816;2024-03-25T07:23:09;3.47;;;1.90;;
4634;SDS011;2330;48.158;11.816;2024-03-25T07:25:36;3.47;;;2.10;;
4634;SDS011;2330;48.158;11.816;2024-03-25T07:28:02;2.53;;;1.90;;
4634;SDS011;2330;48.158;11.816;2024-03-25T07:30:28;5.20;;;2.47;;
4634;SDS011;2330;48.158;11.816;2024-03-25T07:32:55;3.23;;;2.27;;
4634;SDS011;2330;48.158;11.816;2024-03-25T07:35:21;11.13;;;2.27;;
4634;SDS011;2330;48.158;11.816;2024-03-25T07:37:48;3.00;;;2.40;;
4634;SDS011;2330;48.158;11.816;2024-03-25T07:40:20;4.20;;;3.10;;
4634;SDS011;2330;48.158;11.816;2024-03-25T07:42:48;3.57;;;2.97;;
4634;SDS011;2330;48.158;11.816;2024-03-25T07:45:14;4.43;;;2.30;;
4634;SDS011;2330;48.158;11.816;2024-03-25T07:47:41;2.80;;;2.00;;
4634;SDS011;2330;48.158;11.816;2024-03-25T07:50:07;3.60;;;2.50;;
4634;SDS011;2330;48.158;11.816;2024-03-25T07:52:33;3.47;;;2.20;;
4634;SDS011;2330;48.158;11.816;2024-03-25T07:55:05;2.87;;;2.47;;
4634;SDS011;2330;48.158;11.816;2024-03-25T07:57:32;3.13;;;2.23;;
4634;SDS011;2330;48.158;11.816;2024-03-25T07:59:58;2.67;;;2.47;;
4634;SDS011;2330;48.158;11.816;2024-03-25T08:02:24;3.43;;;2.57;;
4634;SDS011;2330;48.158;11.816;2024-03-25T08:04:50;2.70;;;2.20;;
4634;SDS011;2330;48.158;11.816;2024-03-25T08:07:16;3.00;;;2.33;;
4634;SDS011;2330;48.158;11.816;2024-03-25T08:09:42;4.77;;;2.70;;
4634;SDS011;2330;48.158;11.816;2024-03-25T08:12:08;3.53;;;2.40;;
4634;SDS011;2330;48.158;11.816;2024-03-25T08:14:34;3.43;;;2.47;;
4634;SDS011;2330;48.158;11.816;2024-03-25T08:17:00;3.93;;;2.73;;
4634;SDS011;2330;48.158;11.816;2024-03-25T08:19:27;4.40;;;2.90;;
4634;SDS011;2330;48.158;11.816;2024-03-25T08:21:52;3.07;;;2.70;;
4634;SDS011;2330;48.158;11.816;2024-03-25T08:24:18;3.50;;;2.67;;
4634;SDS011;2330;48.158;11.816;2024-03-25T08:26:44;3.63;;;2.33;;
4634;SDS011;2330;48.158;11.816;2024-03-25T08:29:10;2.73;;;2.53;;
4634;SDS011;2330;48.158;11.816;2024-03-25T08:31:36;3.50;;;2.90;;
4634;SDS011;2330;48.158;11.816;2024-03-25T08:34:01;3.83;;;2.77;;
4634;SDS011;2330;48.158;11.816;2024-03-25T08:36:27;4.03;;;3.03;;
4634;SDS011;2330;48.158;11.816;2024-03-25T08:38:53;4.80;;;3.10;;
4634;SDS011;2330;48.158;11.816;2024-03-25T08:41:19;3.97;;;3.23;;
4634;SDS011;2330;48.158;11.816;2024-03-25T08:43:45;4.80;;;3.20;;
4634;SDS011;2330;48.158;11.816;2024-03-25T08:46:10;4.40;;;3.00;;
4634;SDS011;2330;48.158;11.816;2024-03-25T08:48:36;2.83;;;2.40;;
4634;SDS011;2330;48.158;11.816;2024-03-25T08:51:02;4.47;;;3.00;;
4634;SDS011;2330;48.158;11.816;2024-03-25T08:53:29;2.90;;;2.40;;
4634;SDS011;2330;48.158;11.816;2024-03-25T08:55:55;3.07;;;2.50;;
4634;SDS011;2330;48.158;11.816;2024-03-25T08:58:21;3.53;;;2.43;;
4634;SDS011;2330;48.158;11.816;2024-03-25T09:00:46;4.60;;;2.93;;
4634;SDS011;2330;48.158;11.816;2024-03-25T09:03:12;3.43;;;2.37;;
4634;SDS011;2330;48.158;11.816;2024-03-25T09:05:38;4.60;;;2.73;;
4634;SDS011;2330;48.158;11.816;2024-03-25T09:08:05;4.53;;;2.63;;
4634;SDS011;2330;48.158;11.816;2024-03-25T09:10:31;7.40;;;3.10;;
4634;SDS011;2330;48.158;11.816;2024-03-25T09:13:16;3.80;;;2.30;;
4634;SDS011;2330;48.158;11.816;2024-03-25T09:15:42;1.93;;;1.80;;
4634;SDS011;2330;48.158;11.816;2024-03-25T09:18:08;2.40;;;2.10;;
4634;SDS011;2330;48.158;11.816;2024-03-25T09:20:34;3.37;;;2.20;;
4634;SDS011;2330;48.158;11.816;2024-03-25T09:23:00;6.07;;;2.73;;
4634;SDS011;2330;48.158;11.816;2024-03-25T09:25:25;2.77;;;2.20;;
4634;SDS011;2330;48.158;11.816;2024-03-25T09:27:51;2.63;;;2.43;;
4634;SDS011;2330;48.158;11.816;2024-03-25T09:30:17;2.47;;;2.20;;
4634;SDS011;2330;48.158;11.816;2024-03-25T09:32:46;4.47;;;2.77;;
4634;SDS011;2330;48.158;11.816;2024-03-25T09:35:12;3.30;;;2.40;;
4634;SDS011;2330;48.158;11.816;2024-03-25T09:37:38;2.60;;;2.00;;
4634;SDS011;2330;48.158;11.816;2024-03-25T09:40:04;7.87;;;2.37;;
4634;SDS011;2330;48.158;11.816;2024-03-25T09:42:34;3.47;;;2.07;;
4634;SDS011;2330;48.158;11.816;2024-03-25T09:45:07;3.87;;;2.10;;
4634;SDS011;2330;48.158;11.816;2024-03-25T09:47:34;5.03;;;2.30;;
4634;SDS011;2330;48.158;11.816;2024-03-25T09:50:02;4.10;;;2.30;;
4634;SDS011;2330;48.158;11.816;2024-03-25T09:52:31;2.40;;;2.20;;
4634;SDS011;2330;48.158;11.816;2024-03-25T09:54:57;4.63;;;2.13;;
4634;SDS011;2330;48.158;11.816;2024-03-25T09:57:22;10.70;;;2.40;;
4634;SDS011;2330;48.158;11.816;2024-03-25T09:59:49;3.67;;;2.30;;
4634;SDS011;2330;48.158;11.816;2024-03-25T10:02:16;2.67;;;2.37;;
4634;SDS011;2330;48.158;11.816;2024-03-25T10:04:45;3.53;;;2.20;;
4634;SDS011;2330;48.158;11.816;2024-03-25T10:07:16;2.77;;;2.00;;
4634;SDS011;2330;48.158;11.816;2024-03-25T10:09:50;2.20;;;1.90;;
4634;SDS011;2330;48.158;11.816;2024-03-25T10:12:16;2.83;;;2.00;;
4634;SDS011;2330;48.158;11.816;2024-03-25T10:14:43;5.37;;;2.80;;
4634;SDS011;2330;48.158;11.816;2024-03-25T10:17:09;6.13;;;2.27;;
4634;SDS011;2330;48.158;11.816;2024-03-25T10:19:35;2.70;;;1.80;;
4634;SDS011;2330;48.158;11.816;2024-03-25T10:22:04;2.57;;;2.27;;
4634;SDS011;2330;48.158;11.816;2024-03-25T10:24:41;2.03;;;1.83;;
4634;SDS011;2330;48.158;11.816;2024-03-25T10:27:17;3.33;;;1.93;;
4634;SDS011;2330;48.158;11.816;2024-03-25T10:29:47;2.20;;;1.90;;
4634;SDS011;2330;48.158;11.816;2024-03-25T10:32:16;4.30;;;2.10;;
4634;SDS011;2330;48.158;11.816;2024-03-25T10:34:42;3.70;;;2.00;;
4634;SDS011;2330;48.158;11.816;2024-03-25T10:37:09;2.30;;;1.80;;
4634;SDS011;2330;48.158;11.816;2024-03-25T10:39:39;2.27;;;1.77;;
4634;SDS011;2330;48.158;11.816;2024-03-25T10:42:08;3.47;;;2.10;;
4634;SDS011;2330;48.158;11.816;2024-03-25T10:44:38;2.90;;;2.50;;
4634;SDS011;2330;48.158;11.816;2024-03-25T10:47:05;3.40;;;1.90;;
4634;SDS011;2330;48.158;11.816;2024-03-25T10:52:13;2.33;;;2.13;;
4634;SDS011;2330;48.158;11.816;2024-03-25T10:54:41;2.53;;;2.10;;
4634;SDS011;2330;48.158;11.816;2024-03-25T10:57:08;2.27;;;2.07;;
4634;SDS011;2330;48.158;11.816;2024-03-25T10:59:35;2.50;;;2.00;;
4634;SDS011;2330;48.158;11.816;2024-03-25T11:02:07;5.73;;;2.40;;
4634;SDS011;2330;48.158;11.816;2024-03-25T11:04:33;2.60;;;1.53;;
4634;SDS011;2330;48.158;11.816;2024-03-25T11:07:10;3.97;;;1.70;;
4634;SDS011;2330;48.158;11.816;2024-03-25T11:09:40;3.43;;;1.67;;
4634;SDS011;2330;48.158;11.816;2024-03-25T11:12:07;3.20;;;2.10;;
4634;SDS011;2330;48.158;11.816;2024-03-25T11:14:36;2.00;;;1.90;;
4634;SDS011;2330;48.158;11.816;2024-03-25T11:17:03;3.57;;;1.70;;
4634;SDS011;2330;48.158;11.816;2024-03-25T11:19:39;8.30;;;1.80;;
4634;SDS011;2330;48.158;11.816;2024-03-25T11:22:08;2.00;;;1.50;;
4634;SDS011;2330;48.158;11.816;2024-03-25T11:24:35;3.43;;;1.57;;
4634;SDS011;2330;48.158;11.816;2024-03-25T11:27:05;2.83;;;1.70;;
4634;SDS011;2330;48.158;11.816;2024-03-25T11:29:31;3.23;;;2.10;;
4634;SDS011;2330;48.158;11.816;2024-03-25T11:31:58;3.23;;;1.50;;
4634;SDS011;2330;48.158;11.816;2024-03-25T11:34:28;1.30;;;1.20;;
4634;SDS011;2330;48.158;11.816;2024-03-25T11:36:54;5.50;;;1.57;;
4634;SDS011;2330;48.158;11.816;2024-03-25T11:39:23;1.83;;;1.47;;
4634;SDS011;2330;48.158;11.816;2024-03-25T11:41:51;1.87;;;1.40;;
4634;SDS011;2330;48.158;11.816;2024-03-25T11:44:17;1.90;;;1.20;;
4634;SDS011;2330;48.158;11.816;2024-03-25T11:46:44;2.10;;;1.13;;
4634;SDS011;2330;48.158;11.816;2024-03-25T11:49:14;1.80;;;1.33;;
4634;SDS011;2330;48.158;11.816;2024-03-25T11:51:43;3.20;;;1.60;;
4634;SDS011;2330;48.158;11.816;2024-03-25T11:54:11;2.87;;;1.30;;
4634;SDS011;2330;48.158;11.816;2024-03-25T11:56:37;1.40;;;1.30;;
4634;SDS011;2330;48.158;11.816;2024-03-25T11:59:03;1.83;;;1.53;;
4634;SDS011;2330;48.158;11.816;2024-03-25T12:01:30;5.90;;;1.73;;
4634;SDS011;2330;48.158;11.816;2024-03-25T12:03:56;3.07;;;1.00;;
4634;SDS011;2330;48.158;11.816;2024-03-25T12:06:22;2.47;;;1.67;;
4634;SDS011;2330;48.158;11.816;2024-03-25T12:08:48;1.80;;;1.60;;
4634;SDS011;2330;48.158;11.816;2024-03-25T12:11:33;2.13;;;1.40;;
4634;SDS011;2330;48.158;11.816;2024-03-25T12:13:59;2.17;;;1.30;;
4634;SDS011;2330;48.158;11.816;2024-03-25T12:16:25;5.50;;;2.40;;
4634;SDS011;2330;48.158;11.816;2024-03-25T12:18:51;3.07;;;1.60;;
4634;SDS011;2330;48.158;11.816;2024-03-25T12:21:18;3.10;;;2.03;;
4634;SDS011;2330;48.158;11.816;2024-03-25T12:23:45;2.93;;;1.70;;
4634;SDS011;2330;48.158;11.816;2024-03-25T12:26:12;2.40;;;1.30;;
4634;SDS011;2330;48.158;11.816;2024-03-25T12:28:39;2.93;;;1.63;;
4634;SDS011;2330;48.158;11.816;2024-03-25T12:31:08;2.70;;;1.70;;
4634;SDS011;2330;48.158;11.816;2024-03-25T12:33:42;3.00;;;1.40;;
4634;SDS011;2330;48.158;11.816;2024-03-25T12:36:11;1.70;;;1.60;;
4634;SDS011;2330;48.158;11.816;2024-03-25T12:38:37;2.20;;;1.60;;
4634;SDS011;2330;48.158;11.816;2024-03-25T12:41:07;3.40;;;1.80;;
4634;SDS011;2330;48.158;11.816;2024-03-25T12:43:42;3.70;;;1.30;;
4634;SDS011;2330;48.158;11.816;2024-03-25T12:46:09;3.10;;;1.87;;
4634;SDS011;2330;48.158;11.816;2024-03-25T12:48:36;2.60;;;1.97;;
4634;SDS011;2330;48.158;11.816;2024-03-25T12:51:02;1.83;;;1.50;;
4634;SDS011;2330;48.158;11.816;2024-03-25T12:53:29;2.50;;;1.37;;
4634;SDS011;2330;48.158;11.816;2024-03-25T12:55:54;2.07;;;1.50;;
4634;SDS011;2330;48.158;11.816;2024-03-25T12:58:20;1.43;;;1.33;;
4634;SDS011;2330;48.158;11.816;2024-03-25T13:00:46;3.47;;;1.33;;
4634;SDS011;2330;48.158;11.816;2024-03-25T13:03:12;5.57;;;1.70;;
4634;SDS011;2330;48.158;11.816;2024-03-25T13:05:39;2.17;;;1.30;;
4634;SDS011;2330;48.158;11.816;2024-03-25T13:08:06;1.77;;;1.43;;
4634;SDS011;2330;48.158;11.816;2024-03-25T13:10:31;3.53;;;1.57;;
4634;SDS011;2330;48.158;11.816;2024-03-25T13:12:59;1.67;;;1.23;;
4634;SDS011;2330;48.158;11.816;2024-03-25T13:15:27;2.30;;;1.40;;
4634;SDS011;2330;48.158;11.816;2024-03-25T13:17:53;1.60;;;1.40;;
4634;SDS011;2330;48.158;11.816;2024-03-25T13:20:19;1.47;;;1.20;;
4634;SDS011;2330;48.158;11.816;2024-03-25T13:22:45;3.10;;;1.87;;
4634;SDS011;2330;48.158;11.816;2024-03-25T13:25:13;1.60;;;1.40;;
4634;SDS011;2330;48.158;11.816;2024-03-25T13:27:38;1.93;;;1.27;;
4634;SDS011;2330;48.158;11.816;2024-03-25T13:30:05;2.07;;;1.40;;
4634;SDS011;2330;48.158;11.816;2024-03-25T13:32:31;2.03;;;1.30;;
4634;SDS011;2330;48.158;11.816;2024-03-25T13:34:57;2.17;;;1.20;;
4634;SDS011;2330;48.158;11.816;2024-03-25T13:37:23;2.90;;;1.30;;
4634;SDS011;2330;48.158;11.816;2024-03-25T13:39:49;2.10;;;1.63;;
4634;SDS011;2330;48.158;11.816;2024-03-25T13:42:16;2.40;;;1.60;;
4634;SDS011;2330;48.158;11.816;2024-03-25T13:44:42;2.60;;;1.03;;
4634;SDS011;2330;48.158;11.816;2024-03-25T13:47:08;2.90;;;1.30;;
4634;SDS011;2330;48.158;11.816;2024-03-25T13:49:34;2.50;;;1.40;;
4634;SDS011;2330;48.158;11.816;2024-03-25T13:52:00;1.73;;;0.87;;
4634;SDS011;2330;48.158;11.816;2024-03-25T13:54:26;3.63;;;1.33;;
4634;SDS011;2330;48.158;11.816;2024-03-25T13:56:52;2.80;;;1.30;;
4634;SDS011;2330;48.158;11.816;2024-03-25T13:59:18;1.07;;;0.97;;
4634;SDS011;2330;48.158;11.816;2024-03-25T14:01:44;1.10;;;0.90;;
4634;SDS011;2330;48.158;11.816;2024-03-25T14:04:10;1.83;;;1.10;;
4634;SDS011;2330;48.158;11.816;2024-03-25T14:06:36;3.03;;;1.37;;
4634;SDS011;2330;48.158;11.816;2024-03-25T14:09:03;1.77;;;1.03;;
4634;SDS011;2330;48.158;11.816;2024-03-25T14:11:30;1.90;;;1.20;;
4634;SDS011;2330;48.158;11.816;2024-03-25T14:13:56;2.50;;;1.40;;
4634;SDS011;2330;48.158;11.816;2024-03-25T14:16:22;1.60;;;1.10;;
4634;SDS011;2330;48.158;11.816;2024-03-25T14:18:48;1.63;;;1.10;;
4634;SDS011;2330;48.158;11.816;2024-03-25T14:21:13;2.20;;;1.10;;
4634;SDS011;2330;48.158;11.816;2024-03-25T14:23:39;1.33;;;1.20;;
4634;SDS011;2330;48.158;11.816;2024-03-25T14:26:09;2.10;;;1.83;;
4634;SDS011;2330;48.158;11.816;2024-03-25T14:28:35;2.83;;;1.57;;
4634;SDS011;2330;48.158;11.816;2024-03-25T14:31:02;3.60;;;1.70;;
4634;SDS011;2330;48.158;11.816;2024-03-25T14:33:29;1.60;;;1.20;;
4634;SDS011;2330;48.158;11.816;2024-03-25T14:35:54;1.60;;;1.50;;
4634;SDS011;2330;48.158;11.816;2024-03-25T14:38:20;2.30;;;1.10;;
4634;SDS011;2330;48.158;11.816;2024-03-25T14:40:46;1.63;;;1.20;;
4634;SDS011;2330;48.158;11.816;2024-03-25T14:43:12;3.53;;;1.77;;
4634;SDS011;2330;48.158;11.816;2024-03-25T14:45:38;1.80;;;1.30;;
4634;SDS011;2330;48.158;11.816;2024-03-25T14:48:04;4.23;;;0.90;;
4634;SDS011;2330;48.158;11.816;2024-03-25T14:50:30;3.07;;;1.10;;
4634;SDS011;2330;48.158;11.816;2024-03-25T14:52:56;1.50;;;1.10;;
4634;SDS011;2330;48.158;11.816;2024-03-25T14:55:22;1.70;;;1.10;;
4634;SDS011;2330;48.158;11.816;2024-03-25T14:57:47;2.03;;;1.20;;
4634;SDS011;2330;48.158;11.816;2024-03-25T15:00:13;3.07;;;1.33;;